createdAt,value
2018-02-17T00:00:50.251Z,0
2018-02-17T00:01:59.973Z,0
2018-02-17T00:03:09.947Z,0
2018-02-17T00:04:19.908Z,0
2018-02-17T00:05:29.605Z,0
2018-02-17T00:06:39.306Z,0
2018-02-17T00:07:48.745Z,0
2018-02-17T00:08:58.447Z,0
2018-02-17T00:10:07.885Z,0
2018-02-17T00:11:17.846Z,0
2018-02-17T00:12:27.277Z,0
2018-02-17T00:13:36.977Z,0
2018-02-17T00:14:46.677Z,0
2018-02-17T00:15:56.117Z,0
2018-02-17T00:17:06.093Z,0
2018-02-17T00:18:16.060Z,0
2018-02-17T00:19:25.785Z,0
2018-02-17T00:20:35.512Z,0
2018-02-17T00:21:45.478Z,0
2018-02-17T00:22:55.190Z,0
2018-02-17T00:24:05.175Z,0
2018-02-17T00:25:14.875Z,0
2018-02-17T00:26:24.848Z,0
2018-02-17T00:27:34.821Z,0
2018-02-17T00:28:44.270Z,0
2018-02-17T00:29:54.236Z,0
2018-02-17T00:31:04.194Z,0
2018-02-17T00:32:14.157Z,0
2018-02-17T00:33:24.123Z,0
2018-02-17T00:34:33.846Z,0
2018-02-17T00:35:43.799Z,0
2018-02-17T00:36:53.501Z,0
2018-02-17T00:38:03.460Z,0
2018-02-17T00:39:13.427Z,0
2018-02-17T00:40:23.452Z,0
2018-02-17T00:41:33.150Z,0
2018-02-17T00:42:42.853Z,0
2018-02-17T00:43:52.557Z,0
2018-02-17T00:45:02.689Z,0
2018-02-17T00:46:12.386Z,0
2018-02-17T00:47:22.354Z,0
2018-02-17T00:48:32.044Z,0
2018-02-17T00:49:42.028Z,0
2018-02-17T00:50:51.992Z,0
2018-02-17T00:52:01.703Z,0
2018-02-17T00:53:11.660Z,0
2018-02-17T00:54:21.364Z,0
2018-02-17T00:55:31.334Z,0
2018-02-17T00:56:41.282Z,0
2018-02-17T00:57:50.970Z,0
2018-02-17T00:59:00.664Z,0
2018-02-17T01:00:10.375Z,0
2018-02-17T01:01:19.815Z,0
2018-02-17T01:02:29.521Z,0
2018-02-17T01:03:39.239Z,0
2018-02-17T01:04:49.196Z,0
2018-02-17T01:05:59.163Z,0
2018-02-17T01:07:09.128Z,0
2018-02-17T01:08:18.575Z,0
2018-02-17T01:09:28.278Z,0
2018-02-17T01:10:38.256Z,0
2018-02-17T01:11:48.225Z,0
2018-02-17T01:12:57.675Z,0
2018-02-17T01:14:07.379Z,0
2018-02-17T01:15:17.071Z,0
2018-02-17T01:16:27.026Z,0
2018-02-17T01:17:36.979Z,0
2018-02-17T01:18:46.941Z,0
2018-02-17T01:19:56.649Z,0
2018-02-17T01:21:06.606Z,0
2018-02-17T01:22:16.565Z,0
2018-02-17T01:23:26.532Z,0
2018-02-17T01:24:36.502Z,0
2018-02-17T01:25:45.950Z,0
2018-02-17T01:26:55.904Z,0
2018-02-17T01:28:05.861Z,0
2018-02-17T01:29:15.569Z,0
2018-02-17T01:30:25.530Z,0
2018-02-17T01:31:34.965Z,0
2018-02-17T01:32:44.923Z,0
2018-02-17T01:33:54.621Z,0
2018-02-17T01:35:04.602Z,0
2018-02-17T01:36:14.303Z,0
2018-02-17T01:37:23.742Z,0
2018-02-17T01:38:33.448Z,0
2018-02-17T01:39:43.407Z,0
2018-02-17T01:40:53.106Z,0
2018-02-17T01:42:02.552Z,0
2018-02-17T01:43:11.991Z,0
2018-02-17T01:44:21.687Z,0
2018-02-17T01:45:31.409Z,0
2018-02-17T01:46:41.365Z,0
2018-02-17T01:47:51.322Z,0
2018-02-17T01:49:01.275Z,0
2018-02-17T01:50:10.975Z,0
2018-02-17T01:51:20.410Z,0
2018-02-17T01:52:30.370Z,0
2018-02-17T01:53:40.326Z,0
2018-02-17T01:54:50.018Z,0
2018-02-17T01:55:59.716Z,0
2018-02-17T01:57:08.889Z,0
2018-02-17T01:58:18.058Z,0
2018-02-17T01:59:27.748Z,0
2018-02-17T02:00:37.432Z,0
2018-02-17T02:01:46.865Z,0
2018-02-17T02:02:56.815Z,0
2018-02-17T02:04:06.764Z,0
2018-02-17T02:05:16.192Z,0
2018-02-17T02:06:26.182Z,0
2018-02-17T02:07:36.145Z,0
2018-02-17T02:08:46.114Z,0
2018-02-17T02:09:56.065Z,0
2018-02-17T02:11:05.759Z,0
2018-02-17T02:12:15.707Z,0
2018-02-17T02:13:25.398Z,0
2018-02-17T02:14:35.346Z,0
2018-02-17T02:15:45.303Z,0
2018-02-17T02:16:55.054Z,0
2018-02-17T02:18:05.047Z,0
2018-02-17T02:19:15.010Z,0
2018-02-17T02:20:25.186Z,0
2018-02-17T02:21:35.134Z,0
2018-02-17T02:22:44.826Z,0
2018-02-17T02:23:54.520Z,0
2018-02-17T02:25:04.219Z,0
2018-02-17T02:26:13.653Z,0
2018-02-17T02:27:22.825Z,0
2018-02-17T02:28:32.273Z,0
2018-02-17T02:29:41.970Z,0
2018-02-17T02:30:51.404Z,0
2018-02-17T02:32:01.112Z,0
2018-02-17T02:33:10.823Z,0
2018-02-17T02:34:20.790Z,0
2018-02-17T02:35:30.225Z,0
2018-02-17T02:36:39.931Z,0
2018-02-17T02:37:49.656Z,0
2018-02-17T02:38:59.364Z,0
2018-02-17T02:40:09.066Z,0
2018-02-17T02:41:19.038Z,0
2018-02-17T02:42:28.734Z,0
2018-02-17T02:43:38.184Z,0
2018-02-17T02:44:48.153Z,0
2018-02-17T02:45:57.597Z,0
2018-02-17T02:47:07.558Z,0
2018-02-17T02:48:17.263Z,0
2018-02-17T02:49:27.230Z,0
2018-02-17T02:50:36.944Z,0
2018-02-17T02:51:46.911Z,0
2018-02-17T02:52:56.612Z,0
2018-02-17T02:54:06.054Z,0
2018-02-17T02:55:15.250Z,0
2018-02-17T02:56:24.943Z,0
2018-02-17T02:57:34.909Z,0
2018-02-17T02:58:44.368Z,0
2018-02-17T02:59:53.804Z,0
2018-02-17T03:01:03.768Z,0
2018-02-17T03:02:13.711Z,0
2018-02-17T03:03:23.666Z,0
2018-02-17T03:04:33.382Z,0
2018-02-17T03:05:43.086Z,0
2018-02-17T03:06:52.833Z,0
2018-02-17T03:08:02.531Z,0
2018-02-17T03:09:12.492Z,0
2018-02-17T03:10:21.674Z,0
2018-02-17T03:11:31.624Z,0
2018-02-17T03:12:41.587Z,0
2018-02-17T03:13:51.539Z,0
2018-02-17T03:15:01.611Z,0
2018-02-17T03:16:11.566Z,0
2018-02-17T03:17:21.004Z,0
2018-02-17T03:18:30.702Z,0
2018-02-17T03:19:40.403Z,0
2018-02-17T03:20:50.357Z,0
2018-02-17T03:22:00.322Z,0
2018-02-17T03:23:10.287Z,0
2018-02-17T03:24:20.244Z,0
2018-02-17T03:25:29.939Z,0
2018-02-17T03:26:39.896Z,0
2018-02-17T03:27:49.864Z,0
2018-02-17T03:28:59.556Z,0
2018-02-17T03:30:09.283Z,0
2018-02-17T03:31:18.995Z,0
2018-02-17T03:32:29.194Z,0
2018-02-17T03:33:38.893Z,0
2018-02-17T03:34:48.846Z,0
2018-02-17T03:35:58.284Z,0
2018-02-17T03:37:08.243Z,0
2018-02-17T03:38:18.195Z,0
2018-02-17T03:39:27.656Z,0
2018-02-17T03:40:37.102Z,0
2018-02-17T03:41:46.792Z,0
2018-02-17T03:42:56.744Z,0
2018-02-17T03:44:06.186Z,0
2018-02-17T03:45:15.876Z,0
2018-02-17T03:46:25.573Z,0
2018-02-17T03:47:35.528Z,0
2018-02-17T03:48:45.239Z,0
2018-02-17T03:49:54.939Z,0
2018-02-17T03:51:04.626Z,0
2018-02-17T03:52:14.325Z,0
2018-02-17T03:53:24.304Z,0
2018-02-17T03:54:33.764Z,0
2018-02-17T03:55:43.213Z,0
2018-02-17T03:56:52.903Z,0
2018-02-17T03:58:02.850Z,0
2018-02-17T03:59:12.296Z,0
2018-02-17T04:00:21.997Z,0
2018-02-17T04:01:31.690Z,0
2018-02-17T04:02:41.387Z,0
2018-02-17T04:03:51.343Z,0
2018-02-17T04:05:01.303Z,0
2018-02-17T04:06:11.264Z,0
2018-02-17T04:07:21.210Z,0
2018-02-17T04:08:30.647Z,0
2018-02-17T04:09:40.597Z,0
2018-02-17T04:10:50.550Z,0
2018-02-17T04:12:00.245Z,0
2018-02-17T04:13:10.196Z,0
2018-02-17T04:14:19.891Z,0
2018-02-17T04:15:29.849Z,0
2018-02-17T04:16:39.564Z,0
2018-02-17T04:17:49.003Z,0
2018-02-17T04:18:58.951Z,0
2018-02-17T04:20:08.899Z,0
2018-02-17T04:21:18.842Z,0
2018-02-17T04:22:28.540Z,0
2018-02-17T04:23:38.240Z,0
2018-02-17T04:24:48.208Z,0
2018-02-17T04:25:57.643Z,0
2018-02-17T04:27:07.347Z,0
2018-02-17T04:28:17.294Z,0
2018-02-17T04:29:27.252Z,0
2018-02-17T04:30:37.205Z,0
2018-02-17T04:31:46.648Z,0
2018-02-17T04:32:56.355Z,0
2018-02-17T04:34:06.310Z,0
2018-02-17T04:35:16.019Z,0
2018-02-17T04:36:25.705Z,0
2018-02-17T04:37:35.664Z,0
2018-02-17T04:38:45.356Z,0
2018-02-17T04:39:55.047Z,0
2018-02-17T04:41:04.481Z,0
2018-02-17T04:42:14.431Z,0
2018-02-17T04:43:24.372Z,0
2018-02-17T04:44:34.327Z,0
2018-02-17T04:45:44.029Z,0
2018-02-17T04:46:53.981Z,0
2018-02-17T04:48:03.430Z,0
2018-02-17T04:49:13.122Z,0
2018-02-17T04:50:23.069Z,0
2018-02-17T04:51:33.026Z,0
2018-02-17T04:52:42.469Z,0
2018-02-17T04:53:52.420Z,0
2018-02-17T04:55:02.385Z,0
2018-02-17T04:56:12.338Z,0
2018-02-17T04:57:22.036Z,0
2018-02-17T04:58:31.737Z,0
2018-02-17T04:59:41.442Z,0
2018-02-17T05:00:50.620Z,0
2018-02-17T05:02:00.313Z,0
2018-02-17T05:03:10.010Z,0
2018-02-17T05:04:19.206Z,0
2018-02-17T05:05:28.641Z,0
2018-02-17T05:06:38.084Z,0
2018-02-17T05:07:47.779Z,0
2018-02-17T05:08:57.484Z,0
2018-02-17T05:10:06.928Z,0
2018-02-17T05:11:16.367Z,0
2018-02-17T05:12:26.073Z,0
2018-02-17T05:13:36.045Z,0
2018-02-17T05:14:45.992Z,0
2018-02-17T05:15:55.731Z,0
2018-02-17T05:17:05.167Z,0
2018-02-17T05:18:15.123Z,0
2018-02-17T05:19:25.079Z,0
2018-02-17T05:20:35.038Z,0
2018-02-17T05:21:44.746Z,0
2018-02-17T05:22:54.449Z,0
2018-02-17T05:24:04.471Z,0
2018-02-17T05:25:14.172Z,0
2018-02-17T05:26:23.606Z,0
2018-02-17T05:27:33.041Z,0
2018-02-17T05:28:42.729Z,0
2018-02-17T05:29:52.699Z,0
2018-02-17T05:31:02.427Z,0
2018-02-17T05:32:12.128Z,0
2018-02-17T05:33:22.080Z,0
2018-02-17T05:34:31.767Z,0
2018-02-17T05:35:41.202Z,0
2018-02-17T05:36:50.891Z,0
2018-02-17T05:38:00.842Z,0
2018-02-17T05:39:10.802Z,0
2018-02-17T05:40:20.757Z,0
2018-02-17T05:41:30.446Z,0
2018-02-17T05:42:40.398Z,0
2018-02-17T05:43:49.583Z,0
2018-02-17T05:44:59.545Z,0
2018-02-17T05:46:09.497Z,0
2018-02-17T05:47:19.211Z,0
2018-02-17T05:48:28.902Z,0
2018-02-17T05:49:38.863Z,0
2018-02-17T05:50:48.867Z,0
2018-02-17T05:51:58.578Z,0
2018-02-17T05:53:08.529Z,0
2018-02-17T05:54:18.470Z,0
2018-02-17T05:55:28.162Z,0
2018-02-17T05:56:38.116Z,0
2018-02-17T05:57:47.813Z,0
2018-02-17T05:58:57.514Z,0
2018-02-17T06:00:07.230Z,0
2018-02-17T06:01:16.935Z,0
2018-02-17T06:02:26.115Z,0
2018-02-17T06:03:35.554Z,0
2018-02-17T06:04:45.527Z,0
2018-02-17T06:05:55.242Z,0
2018-02-17T06:07:04.945Z,0
2018-02-17T06:08:14.373Z,0
2018-02-17T06:09:24.335Z,0
2018-02-17T06:10:33.768Z,0
2018-02-17T06:11:43.215Z,0
2018-02-17T06:12:53.168Z,0
2018-02-17T06:14:03.118Z,0
2018-02-17T06:15:13.067Z,5
2018-02-17T06:16:23.017Z,5
2018-02-17T06:17:32.970Z,5
2018-02-17T06:18:42.919Z,5
2018-02-17T06:19:52.359Z,5
2018-02-17T06:21:02.050Z,5
2018-02-17T06:22:12.027Z,5
2018-02-17T06:23:21.985Z,10
2018-02-17T06:24:31.932Z,10
2018-02-17T06:25:41.615Z,10
2018-02-17T06:26:51.299Z,10
2018-02-17T06:28:00.997Z,10
2018-02-17T06:29:10.974Z,10
2018-02-17T06:30:20.924Z,10
2018-02-17T06:31:30.889Z,15
2018-02-17T06:32:40.585Z,15
2018-02-17T06:33:50.296Z,15
2018-02-17T06:35:00.266Z,15
2018-02-17T06:36:09.965Z,20
2018-02-17T06:37:19.925Z,20
2018-02-17T06:38:29.615Z,20
2018-02-17T06:39:39.575Z,25
2018-02-17T06:40:49.522Z,25
2018-02-17T06:41:58.959Z,25
2018-02-17T06:43:08.926Z,30
2018-02-17T06:44:18.925Z,30
2018-02-17T06:45:28.624Z,30
2018-02-17T06:46:38.588Z,30
2018-02-17T06:47:48.536Z,35
2018-02-17T06:48:57.972Z,35
2018-02-17T06:50:07.745Z,40
2018-02-17T06:51:17.186Z,40
2018-02-17T06:52:26.876Z,40
2018-02-17T06:53:36.320Z,40
2018-02-17T06:54:45.768Z,45
2018-02-17T06:55:55.476Z,45
2018-02-17T06:57:05.481Z,45
2018-02-17T06:58:15.440Z,50
2018-02-17T06:59:25.167Z,50
2018-02-17T07:00:35.125Z,50
2018-02-17T07:01:44.830Z,55
2018-02-17T07:02:54.271Z,55
2018-02-17T07:04:04.224Z,55
2018-02-17T07:05:13.668Z,60
2018-02-17T07:06:23.631Z,60
2018-02-17T07:07:33.615Z,60
2018-02-17T07:08:43.061Z,65
2018-02-17T07:09:52.504Z,65
2018-02-17T07:11:02.460Z,65
2018-02-17T07:12:12.430Z,70
2018-02-17T07:13:21.631Z,70
2018-02-17T07:14:31.586Z,70
2018-02-17T07:15:41.283Z,70
2018-02-17T07:16:50.465Z,70
2018-02-17T07:18:00.171Z,75
2018-02-17T07:19:09.622Z,75
2018-02-17T07:20:19.068Z,75
2018-02-17T07:21:28.505Z,75
2018-02-17T07:22:38.208Z,80
2018-02-17T07:23:47.656Z,80
2018-02-17T07:24:57.633Z,80
2018-02-17T07:26:07.082Z,85
2018-02-17T07:27:17.045Z,90
2018-02-17T07:28:27.007Z,85
2018-02-17T07:29:36.970Z,85
2018-02-17T07:30:46.684Z,90
2018-02-17T07:31:56.638Z,90
2018-02-17T07:33:05.819Z,90
2018-02-17T07:34:15.782Z,90
2018-02-17T07:35:25.754Z,90
2018-02-17T07:36:35.733Z,85
2018-02-17T07:37:45.429Z,90
2018-02-17T07:38:55.393Z,90
2018-02-17T07:40:05.106Z,95
2018-02-17T07:41:14.799Z,100
2018-02-17T07:42:24.751Z,105
2018-02-17T07:43:34.475Z,105
2018-02-17T07:44:44.179Z,110
2018-02-17T07:45:54.020Z,120
2018-02-17T07:47:04.029Z,125
2018-02-17T07:48:13.733Z,125
2018-02-17T07:49:22.676Z,125
2018-02-17T07:50:32.390Z,125
2018-02-17T07:51:42.507Z,130
2018-02-17T07:52:51.975Z,135
2018-02-17T07:54:01.973Z,140
2018-02-17T07:55:11.677Z,140
2018-02-17T07:56:21.650Z,140
2018-02-17T07:57:31.096Z,135
2018-02-17T07:58:41.063Z,140
2018-02-17T07:59:51.017Z,145
2018-02-17T08:01:00.482Z,145
2018-02-17T08:02:10.433Z,145
2018-02-17T08:03:20.394Z,145
2018-02-17T08:04:30.367Z,145
2018-02-17T08:05:40.324Z,145
2018-02-17T08:06:49.760Z,150
2018-02-17T08:07:59.202Z,150
2018-02-17T08:09:08.120Z,155
2018-02-17T08:10:18.090Z,155
2018-02-17T08:11:27.805Z,155
2018-02-17T08:12:37.764Z,145
2018-02-17T08:13:47.724Z,145
2018-02-17T08:14:57.696Z,150
2018-02-17T08:16:07.657Z,160
2018-02-17T08:17:17.670Z,155
2018-02-17T08:18:27.636Z,155
2018-02-17T08:19:37.595Z,160
2018-02-17T08:20:47.555Z,160
2018-02-17T08:21:57.519Z,160
2018-02-17T08:23:07.496Z,160
2018-02-17T08:24:17.440Z,160
2018-02-17T08:25:27.153Z,165
2018-02-17T08:26:36.851Z,175
2018-02-17T08:27:46.810Z,170
2018-02-17T08:28:56.774Z,170
2018-02-17T08:30:06.477Z,185
2018-02-17T08:31:16.442Z,185
2018-02-17T08:32:26.146Z,185
2018-02-17T08:33:36.138Z,195
2018-02-17T08:34:45.855Z,195
2018-02-17T08:35:55.811Z,195
2018-02-17T08:37:05.254Z,190
2018-02-17T08:38:14.959Z,185
2018-02-17T08:39:24.949Z,175
2018-02-17T08:40:34.645Z,175
2018-02-17T08:41:44.598Z,170
2018-02-17T08:42:54.551Z,175
2018-02-17T08:44:04.279Z,170
2018-02-17T08:45:13.985Z,160
2018-02-17T08:46:23.685Z,170
2018-02-17T08:47:33.651Z,170
2018-02-17T08:48:43.361Z,170
2018-02-17T08:49:52.564Z,175
2018-02-17T08:51:02.008Z,175
2018-02-17T08:52:11.812Z,185
2018-02-17T08:53:21.537Z,200
2018-02-17T08:54:31.501Z,200
2018-02-17T08:55:41.225Z,205
2018-02-17T08:56:50.672Z,205
2018-02-17T08:57:59.863Z,205
2018-02-17T08:59:09.309Z,190
2018-02-17T09:00:18.775Z,180
2018-02-17T09:01:28.751Z,185
2018-02-17T09:02:38.713Z,180
2018-02-17T09:03:47.894Z,170
2018-02-17T09:04:58.108Z,160
2018-02-17T09:06:07.548Z,165
2018-02-17T09:07:17.285Z,175
2018-02-17T09:08:27.257Z,190
2018-02-17T09:09:36.955Z,200
2018-02-17T09:10:46.663Z,215
2018-02-17T09:11:56.110Z,230
2018-02-17T09:13:06.113Z,230
2018-02-17T09:14:15.567Z,230
2018-02-17T09:15:25.530Z,240
2018-02-17T09:16:35.231Z,240
2018-02-17T09:17:44.929Z,245
2018-02-17T09:18:54.686Z,245
2018-02-17T09:20:04.142Z,240
2018-02-17T09:21:13.847Z,250
2018-02-17T09:22:23.807Z,250
2018-02-17T09:23:33.509Z,250
2018-02-17T09:24:43.217Z,255
2018-02-17T09:25:52.931Z,255
2018-02-17T09:27:02.385Z,255
2018-02-17T09:28:12.354Z,255
2018-02-17T09:29:22.324Z,260
2018-02-17T09:30:32.038Z,265
2018-02-17T09:31:42.044Z,270
2018-02-17T09:32:51.508Z,275
2018-02-17T09:34:01.477Z,275
2018-02-17T09:35:11.457Z,270
2018-02-17T09:36:21.432Z,270
2018-02-17T09:37:30.881Z,275
2018-02-17T09:38:40.586Z,280
2018-02-17T09:39:50.573Z,290
2018-02-17T09:41:00.023Z,300
2018-02-17T09:42:09.748Z,305
2018-02-17T09:43:19.463Z,315
2018-02-17T09:44:28.642Z,320
2018-02-17T09:45:38.353Z,310
2018-02-17T09:46:48.323Z,305
2018-02-17T09:47:58.079Z,300
2018-02-17T09:49:08.059Z,300
2018-02-17T09:50:17.766Z,300
2018-02-17T09:51:27.203Z,300
2018-02-17T09:52:37.159Z,300
2018-02-17T09:53:47.138Z,295
2018-02-17T09:54:57.224Z,290
2018-02-17T09:56:07.206Z,285
2018-02-17T09:57:16.903Z,285
2018-02-17T09:58:26.359Z,290
2018-02-17T09:59:36.071Z,295
2018-02-17T10:00:46.051Z,285
2018-02-17T10:01:55.483Z,280
2018-02-17T10:03:05.205Z,280
2018-02-17T10:04:14.906Z,275
2018-02-17T10:05:24.878Z,280
2018-02-17T10:06:34.330Z,285
2018-02-17T10:07:44.296Z,290
2018-02-17T10:08:54.275Z,295
2018-02-17T10:10:03.996Z,300
2018-02-17T10:11:13.957Z,305
2018-02-17T10:12:23.686Z,315
2018-02-17T10:13:33.135Z,330
2018-02-17T10:14:42.858Z,340
2018-02-17T10:15:52.855Z,340
2018-02-17T10:17:02.819Z,345
2018-02-17T10:18:12.788Z,345
2018-02-17T10:19:22.789Z,350
2018-02-17T10:20:32.768Z,345
2018-02-17T10:21:42.493Z,345
2018-02-17T10:22:52.466Z,350
2018-02-17T10:24:02.459Z,355
2018-02-17T10:25:12.170Z,360
2018-02-17T10:26:21.880Z,360
2018-02-17T10:27:31.601Z,365
2018-02-17T10:28:40.799Z,370
2018-02-17T10:29:50.506Z,380
2018-02-17T10:31:00.212Z,385
2018-02-17T10:32:09.939Z,395
2018-02-17T10:33:19.409Z,400
2018-02-17T10:34:29.124Z,405
2018-02-17T10:35:39.122Z,405
2018-02-17T10:36:48.577Z,420
2018-02-17T10:37:58.018Z,420
2018-02-17T10:39:07.998Z,420
2018-02-17T10:40:17.778Z,425
2018-02-17T10:41:27.749Z,420
2018-02-17T10:42:37.215Z,435
2018-02-17T10:43:47.179Z,425
2018-02-17T10:44:56.880Z,425
2018-02-17T10:46:06.580Z,425
2018-02-17T10:47:16.286Z,420
2018-02-17T10:48:26.254Z,415
2018-02-17T10:49:35.733Z,395
2018-02-17T10:50:45.555Z,380
2018-02-17T10:51:55.537Z,380
2018-02-17T10:53:05.495Z,375
2018-02-17T10:54:15.468Z,370
2018-02-17T10:55:25.431Z,360
2018-02-17T10:56:35.403Z,350
2018-02-17T10:57:45.365Z,360
2018-02-17T10:58:55.080Z,370
2018-02-17T11:00:05.069Z,380
2018-02-17T11:01:14.782Z,380
2018-02-17T11:02:24.485Z,380
2018-02-17T11:03:34.451Z,375
2018-02-17T11:04:44.159Z,370
2018-02-17T11:05:54.126Z,370
2018-02-17T11:07:03.827Z,365
2018-02-17T11:08:13.792Z,370
2018-02-17T11:09:23.489Z,375
2018-02-17T11:10:32.930Z,380
2018-02-17T11:11:42.631Z,380
2018-02-17T11:12:52.590Z,380
2018-02-17T11:14:02.577Z,385
2018-02-17T11:15:12.540Z,390
2018-02-17T11:16:22.255Z,395
2018-02-17T11:17:31.976Z,395
2018-02-17T11:18:41.159Z,395
2018-02-17T11:19:50.610Z,400
2018-02-17T11:21:00.338Z,405
2018-02-17T11:22:09.523Z,415
2018-02-17T11:23:19.241Z,410
2018-02-17T11:24:29.219Z,405
2018-02-17T11:25:39.226Z,400
2018-02-17T11:26:49.192Z,400
2018-02-17T11:27:59.158Z,400
2018-02-17T11:29:09.211Z,400
2018-02-17T11:30:18.919Z,380
2018-02-17T11:31:28.894Z,390
2018-02-17T11:32:38.874Z,390
2018-02-17T11:33:48.843Z,385
2018-02-17T11:34:58.554Z,390
2018-02-17T11:36:08.521Z,390
2018-02-17T11:37:18.225Z,380
2018-02-17T11:38:27.936Z,375
2018-02-17T11:39:37.908Z,375
2018-02-17T11:40:47.365Z,390
2018-02-17T11:41:57.334Z,390
2018-02-17T11:43:07.372Z,395
2018-02-17T11:44:17.144Z,405
2018-02-17T11:45:26.869Z,410
2018-02-17T11:46:36.582Z,415
2018-02-17T11:47:46.552Z,425
2018-02-17T11:48:56.515Z,440
2018-02-17T11:50:06.223Z,430
2018-02-17T11:51:15.928Z,445
2018-02-17T11:52:25.659Z,455
2018-02-17T11:53:35.407Z,455
2018-02-17T11:54:44.859Z,455
2018-02-17T11:55:54.036Z,460
2018-02-17T11:57:03.492Z,465
2018-02-17T11:58:13.198Z,465
2018-02-17T11:59:23.171Z,465
2018-02-17T12:00:32.613Z,470
2018-02-17T12:01:42.588Z,465
2018-02-17T12:02:52.565Z,455
2018-02-17T12:04:01.777Z,430
2018-02-17T12:05:11.217Z,410
2018-02-17T12:06:21.187Z,380
2018-02-17T12:07:30.662Z,375
2018-02-17T12:08:40.637Z,380
2018-02-17T12:09:50.631Z,375
2018-02-17T12:11:00.604Z,365
2018-02-17T12:12:10.333Z,370
2018-02-17T12:13:20.316Z,375
2018-02-17T12:14:30.290Z,370
2018-02-17T12:15:39.752Z,360
2018-02-17T12:16:49.463Z,365
2018-02-17T12:17:59.176Z,365
2018-02-17T12:19:09.141Z,355
2018-02-17T12:20:19.141Z,340
2018-02-17T12:21:29.122Z,335
2018-02-17T12:22:38.989Z,305
2018-02-17T12:23:48.444Z,275
2018-02-17T12:24:57.909Z,260
2018-02-17T12:26:07.374Z,255
2018-02-17T12:27:17.088Z,240
2018-02-17T12:28:26.912Z,230
2018-02-17T12:29:36.894Z,220
2018-02-17T12:30:46.850Z,215
2018-02-17T12:31:56.819Z,210
2018-02-17T12:33:06.525Z,210
2018-02-17T12:34:16.757Z,205
2018-02-17T12:35:26.729Z,195
2018-02-17T12:36:36.177Z,195
2018-02-17T12:37:45.881Z,195
2018-02-17T12:38:55.860Z,190
2018-02-17T12:40:05.315Z,180
2018-02-17T12:41:15.021Z,175
2018-02-17T12:42:24.995Z,170
2018-02-17T12:43:34.432Z,165
2018-02-17T12:44:43.946Z,165
2018-02-17T12:45:53.671Z,165
2018-02-17T12:47:03.395Z,160
2018-02-17T12:48:12.827Z,160
2018-02-17T12:49:22.535Z,165
2018-02-17T12:50:32.254Z,175
2018-02-17T12:51:42.229Z,180
2018-02-17T12:52:51.686Z,175
2018-02-17T12:54:01.147Z,180
2018-02-17T12:55:11.139Z,185
2018-02-17T12:56:21.115Z,185
2018-02-17T12:57:31.080Z,185
2018-02-17T12:58:40.800Z,190
2018-02-17T12:59:50.511Z,195
2018-02-17T13:00:59.461Z,210
2018-02-17T13:02:09.185Z,215
2018-02-17T13:03:18.896Z,210
2018-02-17T13:04:28.881Z,200
2018-02-17T13:05:38.865Z,225
2018-02-17T13:06:48.838Z,225
2018-02-17T13:07:58.545Z,245
2018-02-17T13:09:08.250Z,250
2018-02-17T13:10:17.701Z,250
2018-02-17T13:11:27.160Z,230
2018-02-17T13:12:36.628Z,225
2018-02-17T13:13:46.708Z,215
2018-02-17T13:14:56.410Z,220
2018-02-17T13:16:06.157Z,215
2018-02-17T13:17:15.610Z,215
2018-02-17T13:18:25.316Z,215
2018-02-17T13:19:35.287Z,220
2018-02-17T13:20:45.266Z,225
2018-02-17T13:21:55.249Z,220
2018-02-17T13:23:05.217Z,215
2018-02-17T13:24:14.916Z,215
2018-02-17T13:25:24.879Z,215
2018-02-17T13:26:34.849Z,215
2018-02-17T13:27:44.313Z,215
2018-02-17T13:28:54.272Z,215
2018-02-17T13:30:03.984Z,215
2018-02-17T13:31:13.706Z,220
2018-02-17T13:32:23.416Z,220
2018-02-17T13:33:33.396Z,225
2018-02-17T13:34:43.113Z,220
2018-02-17T13:35:52.834Z,220
2018-02-17T13:37:02.804Z,215
2018-02-17T13:38:12.794Z,215
2018-02-17T13:39:22.772Z,215
2018-02-17T13:40:32.468Z,215
2018-02-17T13:41:42.183Z,215
2018-02-17T13:42:52.147Z,210
2018-02-17T13:44:02.124Z,205
2018-02-17T13:45:12.117Z,195
2018-02-17T13:46:21.854Z,190
2018-02-17T13:47:31.862Z,185
2018-02-17T13:48:41.846Z,185
2018-02-17T13:49:51.815Z,180
2018-02-17T13:51:01.782Z,185
2018-02-17T13:52:11.482Z,185
2018-02-17T13:53:21.449Z,190
2018-02-17T13:54:31.176Z,190
2018-02-17T13:55:41.150Z,190
2018-02-17T13:56:51.131Z,195
2018-02-17T13:58:01.122Z,195
2018-02-17T13:59:11.092Z,200
2018-02-17T14:00:20.809Z,210
2018-02-17T14:01:30.783Z,210
2018-02-17T14:02:40.229Z,225
2018-02-17T14:03:49.419Z,235
2018-02-17T14:04:59.393Z,245
2018-02-17T14:06:09.115Z,250
2018-02-17T14:07:18.844Z,250
2018-02-17T14:08:28.968Z,245
2018-02-17T14:09:38.741Z,240
2018-02-17T14:10:48.469Z,235
2018-02-17T14:11:57.992Z,225
2018-02-17T14:13:07.711Z,225
2018-02-17T14:14:17.162Z,225
2018-02-17T14:15:26.961Z,220
2018-02-17T14:16:36.698Z,215
2018-02-17T14:17:46.433Z,215
2018-02-17T14:18:56.144Z,210
2018-02-17T14:20:06.188Z,210
2018-02-17T14:21:15.898Z,205
2018-02-17T14:22:25.353Z,200
2018-02-17T14:23:35.074Z,200
2018-02-17T14:24:45.051Z,200
2018-02-17T14:25:54.759Z,205
2018-02-17T14:27:04.478Z,205
2018-02-17T14:28:14.213Z,205
2018-02-17T14:29:23.927Z,205
2018-02-17T14:30:33.662Z,205
2018-02-17T14:31:43.641Z,195
2018-02-17T14:32:53.376Z,185
2018-02-17T14:34:03.363Z,180
2018-02-17T14:35:13.070Z,175
2018-02-17T14:36:23.070Z,170
2018-02-17T14:37:33.030Z,170
2018-02-17T14:38:43.010Z,170
2018-02-17T14:39:52.984Z,170
2018-02-17T14:41:02.717Z,170
2018-02-17T14:42:12.696Z,165
2018-02-17T14:43:22.674Z,160
2018-02-17T14:44:32.392Z,160
2018-02-17T14:45:42.365Z,160
2018-02-17T14:46:52.359Z,160
2018-02-17T14:48:02.325Z,155
2018-02-17T14:49:12.041Z,155
2018-02-17T14:50:21.874Z,150
2018-02-17T14:51:31.926Z,150
2018-02-17T14:52:41.934Z,145
2018-02-17T14:53:51.915Z,140
2018-02-17T14:55:01.895Z,130
2018-02-17T14:56:11.875Z,125
2018-02-17T14:57:21.614Z,120
2018-02-17T14:58:31.078Z,115
2018-02-17T14:59:40.832Z,105
2018-02-17T15:00:50.558Z,100
2018-02-17T15:01:59.759Z,95
2018-02-17T15:03:09.483Z,90
2018-02-17T15:04:19.466Z,85
2018-02-17T15:05:29.183Z,80
2018-02-17T15:06:39.374Z,75
2018-02-17T15:07:49.751Z,75
2018-02-17T15:08:59.744Z,75
2018-02-17T15:10:09.200Z,70
2018-02-17T15:11:18.953Z,65
2018-02-17T15:12:28.418Z,65
2018-02-17T15:13:38.383Z,65
2018-02-17T15:14:47.826Z,60
2018-02-17T15:15:57.560Z,60
2018-02-17T15:17:07.528Z,60
2018-02-17T15:18:17.091Z,60
2018-02-17T15:19:26.548Z,60
2018-02-17T15:20:36.281Z,55
2018-02-17T15:21:46.013Z,55
2018-02-17T15:22:55.210Z,55
2018-02-17T15:24:04.411Z,55
2018-02-17T15:25:14.145Z,50
2018-02-17T15:26:23.862Z,50
2018-02-17T15:27:33.566Z,50
2018-02-17T15:28:43.276Z,45
2018-02-17T15:29:53.250Z,45
2018-02-17T15:31:02.972Z,45
2018-02-17T15:32:12.697Z,45
2018-02-17T15:33:22.427Z,40
2018-02-17T15:34:31.624Z,40
2018-02-17T15:35:41.595Z,40
2018-02-17T15:36:51.571Z,40
2018-02-17T15:38:01.668Z,40
2018-02-17T15:39:11.381Z,40
2018-02-17T15:40:21.340Z,35
2018-02-17T15:41:30.789Z,35
2018-02-17T15:42:40.502Z,35
2018-02-17T15:43:50.218Z,35
2018-02-17T15:44:59.404Z,30
2018-02-17T15:46:09.374Z,30
2018-02-17T15:47:19.085Z,30
2018-02-17T15:48:28.557Z,30
2018-02-17T15:49:38.550Z,25
2018-02-17T15:50:48.003Z,25
2018-02-17T15:51:57.197Z,25
2018-02-17T15:53:06.926Z,25
2018-02-17T15:54:16.695Z,25
2018-02-17T15:55:26.180Z,20
2018-02-17T15:56:35.889Z,20
2018-02-17T15:57:45.889Z,20
2018-02-17T15:58:55.598Z,20
2018-02-17T16:00:05.559Z,20
2018-02-17T16:01:15.544Z,15
2018-02-17T16:02:25.511Z,15
2018-02-17T16:03:35.214Z,15
2018-02-17T16:04:44.722Z,15
2018-02-17T16:05:54.694Z,10
2018-02-17T16:07:04.144Z,10
2018-02-17T16:08:13.859Z,10
2018-02-17T16:09:23.316Z,10
2018-02-17T16:10:33.015Z,10
2018-02-17T16:11:43.251Z,5
2018-02-17T16:12:52.430Z,5
2018-02-17T16:14:02.142Z,5
2018-02-17T16:15:12.096Z,5
2018-02-17T16:16:21.569Z,5
2018-02-17T16:17:31.303Z,0
2018-02-17T16:18:41.030Z,0
2018-02-17T16:19:50.740Z,0
2018-02-17T16:21:00.706Z,0
2018-02-17T16:22:10.664Z,0
2018-02-17T16:23:20.636Z,0
2018-02-17T16:24:30.335Z,0
2018-02-17T16:25:39.786Z,0
2018-02-17T16:26:49.506Z,0
2018-02-17T16:27:59.481Z,0
2018-02-17T16:29:09.206Z,0
2018-02-17T16:30:18.932Z,0
2018-02-17T16:31:28.897Z,0
2018-02-17T16:32:38.601Z,0
2018-02-17T16:33:47.797Z,0